Time;durP1;ratioP1;P1;durP2;ratioP2;P2;SDS_P1;SDS_P2;PMS_P1;PMS_P2;Temp;Humidity;BMP_temperature;BMP_pressure;BME280_temperature;BME280_humidity;BME280_pressure;Samples;Min_cycle;Max_cycle;Signal;HPM_P1;HPM_P2
2023/08/21 00:00:14;;;;;;;155.77;147.70;;;;;;;;;;5063587;28;20049;-62
2023/08/21 00:02:40;;;;;;;154.18;146.32;;;;;;;;;;5064939;28;20112;-62
2023/08/21 00:05:06;;;;;;;137.63;130.65;;;;;;;;;;5063365;28;20036;-63
2023/08/21 00:07:31;;;;;;;132.68;125.97;;;;;;;;;;5065796;28;20028;-62
2023/08/21 00:09:57;;;;;;;136.15;129.20;;;;;;;;;;5062269;28;20043;-63
2023/08/21 00:12:22;;;;;;;130.35;123.55;;;;;;;;;;5064086;28;20118;-63
2023/08/21 00:14:47;;;;;;;123.07;116.82;;;;;;;;;;5064097;28;20035;-67
2023/08/21 00:17:13;;;;;;;109.32;103.80;;;;;;;;;;5065762;28;20505;-66
2023/08/21 00:19:38;;;;;;;108.47;102.93;;;;;;;;;;5064147;28;20037;-67
2023/08/21 00:22:04;;;;;;;108.10;102.53;;;;;;;;;;5063488;28;20589;-67
2023/08/21 00:24:29;;;;;;;107.65;102.22;;;;;;;;;;5063158;28;20062;-67
2023/08/21 00:26:54;;;;;;;95.13;90.10;;;;;;;;;;5062235;28;20058;-66
2023/08/21 00:29:20;;;;;;;87.30;82.78;;;;;;;;;;5062136;28;20156;-62
2023/08/21 00:31:45;;;;;;;94.82;89.95;;;;;;;;;;5064145;28;20558;-63
2023/08/21 00:34:11;;;;;;;89.18;84.53;;;;;;;;;;5059703;28;20143;-62
2023/08/21 00:36:36;;;;;;;86.45;82.05;;;;;;;;;;5061348;28;20094;-62
2023/08/21 00:39:01;;;;;;;85.90;81.47;;;;;;;;;;5062108;28;20117;-63
2023/08/21 00:41:27;;;;;;;87.50;82.93;;;;;;;;;;5079178;28;20109;-62
2023/08/21 00:43:52;;;;;;;85.03;80.60;;;;;;;;;;5065109;28;20048;-62
2023/08/21 00:46:17;;;;;;;88.25;83.65;;;;;;;;;;5062625;28;20024;-67
2023/08/21 00:48:44;;;;;;;89.75;85.07;;;;;;;;;;5064857;28;20053;-66
2023/08/21 00:51:11;;;;;;;95.43;90.55;;;;;;;;;;5063657;28;20342;-67
2023/08/21 00:53:37;;;;;;;90.70;85.88;;;;;;;;;;5061452;28;20127;-67
2023/08/21 00:56:03;;;;;;;101.75;96.60;;;;;;;;;;5065187;28;20107;-67
2023/08/21 00:58:29;;;;;;;89.35;84.72;;;;;;;;;;5063175;28;20040;-66
2023/08/21 01:00:54;;;;;;;99.10;94.00;;;;;;;;;;5064373;28;20032;-67
2023/08/21 01:03:20;;;;;;;102.47;97.22;;;;;;;;;;5064646;28;20102;-66
2023/08/21 01:05:45;;;;;;;102.30;97.05;;;;;;;;;;5061938;28;20043;-67
2023/08/21 01:08:25;;;;;;;96.43;91.38;;;;;;;;;;5066003;28;20048;-67
2023/08/21 01:11:17;;;;;;;92.28;87.45;;;;;;;;;;5060373;28;20028;-67
2023/08/21 01:14:23;;;;;;;100.00;94.88;;;;;;;;;;5063007;28;20514;-67
2023/08/21 01:16:55;;;;;;;98.22;93.18;;;;;;;;;;5023394;28;20049;-67
2023/08/21 01:19:31;;;;;;;102.22;96.95;;;;;;;;;;5064591;28;20047;-66
2023/08/21 01:21:58;;;;;;;101.85;96.43;;;;;;;;;;5064976;28;20044;-66
2023/08/21 01:24:23;;;;;;;101.82;96.55;;;;;;;;;;5064035;28;20392;-67
2023/08/21 01:26:48;;;;;;;101.80;95.78;;;;;;;;;;5062322;28;20166;-67
2023/08/21 01:29:14;;;;;;;105.28;99.80;;;;;;;;;;5061968;28;20033;-67
2023/08/21 01:31:44;;;;;;;108.38;102.72;;;;;;;;;;5063066;28;20093;-66
2023/08/21 01:34:12;;;;;;;107.85;102.32;;;;;;;;;;5067823;28;20037;-66
2023/08/21 01:36:38;;;;;;;109.65;104.00;;;;;;;;;;5069113;28;20624;-67
2023/08/21 01:39:04;;;;;;;111.03;105.30;;;;;;;;;;5064665;28;20068;-67
2023/08/21 01:41:29;;;;;;;115.63;109.72;;;;;;;;;;5066845;28;20071;-66
2023/08/21 01:43:55;;;;;;;114.63;108.68;;;;;;;;;;5071597;28;20028;-66
2023/08/21 01:46:20;;;;;;;116.78;110.80;;;;;;;;;;5066702;28;20021;-66
2023/08/21 01:48:46;;;;;;;115.30;109.40;;;;;;;;;;5064249;28;20029;-67
2023/08/21 01:51:11;;;;;;;112.95;107.13;;;;;;;;;;5064274;28;20085;-67
2023/08/21 01:53:36;;;;;;;116.40;110.40;;;;;;;;;;5065322;28;20045;-67
2023/08/21 01:56:02;;;;;;;117.40;111.28;;;;;;;;;;5066388;28;20122;-67
2023/08/21 01:58:27;;;;;;;117.35;111.35;;;;;;;;;;5064778;28;20089;-67
2023/08/21 02:00:52;;;;;;;115.97;109.97;;;;;;;;;;5064549;28;20044;-66
2023/08/21 02:03:18;;;;;;;119.25;113.13;;;;;;;;;;5065909;28;20029;-66
2023/08/21 02:05:43;;;;;;;114.13;108.32;;;;;;;;;;5064722;28;20039;-67
2023/08/21 02:08:12;;;;;;;121.95;115.65;;;;;;;;;;5064861;28;20107;-67
2023/08/21 02:10:37;;;;;;;114.78;108.88;;;;;;;;;;5066906;28;20043;-66
2023/08/21 02:13:02;;;;;;;118.88;112.80;;;;;;;;;;5068196;28;20119;-66
2023/08/21 02:15:28;;;;;;;119.20;113.00;;;;;;;;;;5098482;27;20485;-66
2023/08/21 02:17:54;;;;;;;118.65;112.65;;;;;;;;;;5064288;28;20033;-67
2023/08/21 02:20:19;;;;;;;122.93;116.72;;;;;;;;;;5064637;28;20036;-66
2023/08/21 02:22:45;;;;;;;121.07;114.80;;;;;;;;;;5065119;28;20492;-66
2023/08/21 02:25:10;;;;;;;116.25;110.25;;;;;;;;;;5062505;28;20194;-67
2023/08/21 02:27:36;;;;;;;120.70;114.55;;;;;;;;;;5081375;28;20347;-66
2023/08/21 02:30:01;;;;;;;109.05;102.63;;;;;;;;;;5069489;28;20036;-66
2023/08/21 02:32:26;;;;;;;100.63;95.50;;;;;;;;;;5065314;28;20033;-66
2023/08/21 02:34:52;;;;;;;106.70;101.30;;;;;;;;;;5063327;28;20040;-66
2023/08/21 02:37:17;;;;;;;108.13;102.57;;;;;;;;;;5065875;28;20040;-66
2023/08/21 02:39:42;;;;;;;100.85;95.75;;;;;;;;;;5053460;28;20625;-67
2023/08/21 02:42:08;;;;;;;101.63;96.47;;;;;;;;;;5068954;28;20115;-66
2023/08/21 02:44:33;;;;;;;108.70;103.22;;;;;;;;;;5064304;28;20040;-66
2023/08/21 02:46:58;;;;;;;101.82;96.72;;;;;;;;;;5064980;28;20466;-66
2023/08/21 02:49:24;;;;;;;113.07;107.32;;;;;;;;;;5063740;28;20043;-66
2023/08/21 02:51:49;;;;;;;111.43;105.82;;;;;;;;;;5065628;28;20511;-66
2023/08/21 02:54:14;;;;;;;114.88;109.07;;;;;;;;;;5066905;28;20510;-66
2023/08/21 02:56:40;;;;;;;110.55;104.95;;;;;;;;;;5067985;28;20473;-66
2023/08/21 02:59:05;;;;;;;110.55;104.88;;;;;;;;;;5063559;28;20603;-66
2023/08/21 03:01:31;;;;;;;111.95;106.25;;;;;;;;;;5062551;28;20044;-66
2023/08/21 03:03:57;;;;;;;110.10;104.45;;;;;;;;;;5062071;28;20032;-66
2023/08/21 03:06:22;;;;;;;116.50;110.57;;;;;;;;;;5062756;28;20028;-66
2023/08/21 03:08:47;;;;;;;124.88;118.53;;;;;;;;;;5065135;28;20514;-66
2023/08/21 03:11:13;;;;;;;116.82;110.93;;;;;;;;;;5062689;28;20470;-66
2023/08/21 03:13:38;;;;;;;112.63;106.93;;;;;;;;;;5066491;28;20097;-66
2023/08/21 03:16:04;;;;;;;120.13;114.05;;;;;;;;;;5064230;28;20037;-66
2023/08/21 03:18:31;;;;;;;105.53;100.22;;;;;;;;;;5061529;28;20366;-67
2023/08/21 03:20:56;;;;;;;116.47;110.47;;;;;;;;;;5063922;28;20068;-62
2023/08/21 03:23:22;;;;;;;106.75;101.35;;;;;;;;;;5064274;28;20121;-62
2023/08/21 03:25:47;;;;;;;103.78;98.20;;;;;;;;;;5067052;28;20056;-62
2023/08/21 03:28:13;;;;;;;105.30;100.00;;;;;;;;;;5066738;28;20048;-62
2023/08/21 03:30:41;;;;;;;105.65;100.35;;;;;;;;;;5064284;28;20074;-62
2023/08/21 03:33:08;;;;;;;103.55;98.00;;;;;;;;;;5062799;28;20044;-62
2023/08/21 03:35:33;;;;;;;102.75;97.53;;;;;;;;;;5066991;28;20047;-61
2023/08/21 03:37:58;;;;;;;108.18;102.07;;;;;;;;;;5066340;28;20028;-62
2023/08/21 03:40:24;;;;;;;104.32;98.95;;;;;;;;;;5067411;28;20075;-61
2023/08/21 03:42:49;;;;;;;95.60;90.72;;;;;;;;;;5065668;28;20040;-62
2023/08/21 03:45:14;;;;;;;98.40;93.47;;;;;;;;;;5065062;28;20056;-61
2023/08/21 03:47:40;;;;;;;95.25;90.40;;;;;;;;;;5062623;28;20107;-62
2023/08/21 03:50:06;;;;;;;108.38;102.90;;;;;;;;;;5061420;28;20092;-62
2023/08/21 03:52:31;;;;;;;103.50;98.18;;;;;;;;;;5062679;28;20043;-61
2023/08/21 03:54:56;;;;;;;108.43;102.93;;;;;;;;;;5063905;28;20029;-62
2023/08/21 03:57:22;;;;;;;118.38;112.43;;;;;;;;;;5065601;28;20136;-62
2023/08/21 03:59:47;;;;;;;121.15;115.00;;;;;;;;;;5063979;28;20028;-61
2023/08/21 04:02:12;;;;;;;115.03;109.25;;;;;;;;;;5063120;28;20424;-61
2023/08/21 04:04:38;;;;;;;114.18;108.32;;;;;;;;;;5067236;28;20750;-62
2023/08/21 04:07:03;;;;;;;128.13;121.68;;;;;;;;;;5061464;28;20071;-62
2023/08/21 04:09:28;;;;;;;121.53;115.43;;;;;;;;;;5063742;28;20044;-61
2023/08/21 04:11:54;;;;;;;132.95;126.28;;;;;;;;;;5063721;28;20040;-62
2023/08/21 04:14:19;;;;;;;134.20;127.45;;;;;;;;;;5064294;28;20458;-62
2023/08/21 04:16:45;;;;;;;136.90;130.00;;;;;;;;;;5093764;27;20463;-62
2023/08/21 04:19:10;;;;;;;153.20;145.55;;;;;;;;;;5062592;28;20102;-62
2023/08/21 04:21:35;;;;;;;151.40;143.80;;;;;;;;;;5062804;28;20123;-62
2023/08/21 04:24:01;;;;;;;140.07;132.77;;;;;;;;;;5061199;28;20042;-62
2023/08/21 04:26:26;;;;;;;138.93;131.88;;;;;;;;;;5062767;28;20458;-62
2023/08/21 04:28:51;;;;;;;156.10;148.32;;;;;;;;;;5063259;28;20040;-62
2023/08/21 04:31:17;;;;;;;140.07;133.07;;;;;;;;;;5063388;28;20141;-62
2023/08/21 04:33:42;;;;;;;145.40;138.13;;;;;;;;;;5060822;28;20394;-62
2023/08/21 04:36:08;;;;;;;139.80;132.82;;;;;;;;;;5061160;28;20398;-62
2023/08/21 04:38:33;;;;;;;125.43;119.13;;;;;;;;;;5061514;28;20615;-62
2023/08/21 04:41:08;;;;;;;117.60;111.65;;;;;;;;;;5060697;28;20127;-62
2023/08/21 04:43:34;;;;;;;111.13;105.53;;;;;;;;;;5063693;28;20462;-62
2023/08/21 04:45:59;;;;;;;114.13;108.43;;;;;;;;;;5062175;28;20089;-62
2023/08/21 04:48:25;;;;;;;121.95;115.90;;;;;;;;;;5064365;28;20240;-62
2023/08/21 04:50:50;;;;;;;126.07;119.82;;;;;;;;;;5066647;28;20058;-62
2023/08/21 04:53:15;;;;;;;136.00;129.18;;;;;;;;;;5065004;28;20131;-62
2023/08/21 04:55:41;;;;;;;141.68;134.63;;;;;;;;;;5062027;28;20055;-62
2023/08/21 04:58:07;;;;;;;133.20;126.53;;;;;;;;;;5062568;28;20051;-61
2023/08/21 05:00:33;;;;;;;166.27;158.07;;;;;;;;;;5062507;28;20111;-61
2023/08/21 05:02:58;;;;;;;169.48;161.07;;;;;;;;;;5062900;28;20087;-61
2023/08/21 05:05:24;;;;;;;160.80;152.85;;;;;;;;;;5063853;28;20059;-61
2023/08/21 05:07:49;;;;;;;176.27;167.57;;;;;;;;;;5064229;28;20107;-62
2023/08/21 05:10:15;;;;;;;184.07;175.00;;;;;;;;;;5060237;28;20288;-61
2023/08/21 05:12:40;;;;;;;177.52;168.80;;;;;;;;;;5062755;28;20432;-62
2023/08/21 05:15:06;;;;;;;198.77;189.23;;;;;;;;;;5064021;28;20455;-62
2023/08/21 05:17:31;;;;;;;215.40;205.10;;;;;;;;;;5064716;28;20044;-61
2023/08/21 05:19:56;;;;;;;225.30;214.55;;;;;;;;;;5063414;28;20176;-62
2023/08/21 05:22:22;;;;;;;226.30;215.43;;;;;;;;;;5063445;28;20060;-61
2023/08/21 05:24:47;;;;;;;236.75;225.32;;;;;;;;;;5062787;28;20037;-62
2023/08/21 05:27:13;;;;;;;241.35;229.77;;;;;;;;;;5058666;28;20039;-61
2023/08/21 05:29:39;;;;;;;248.18;236.27;;;;;;;;;;5063074;28;20032;-61
2023/08/21 05:32:04;;;;;;;241.32;229.68;;;;;;;;;;5062464;28;20067;-61
2023/08/21 05:34:30;;;;;;;258.90;246.45;;;;;;;;;;5065794;28;20455;-60
2023/08/21 05:36:56;;;;;;;251.40;239.23;;;;;;;;;;5061238;28;20040;-60
2023/08/21 05:39:21;;;;;;;257.38;244.98;;;;;;;;;;5060900;28;20025;-60
2023/08/21 05:41:47;;;;;;;245.85;234.05;;;;;;;;;;5063316;28;20161;-60
2023/08/21 05:44:12;;;;;;;243.40;231.57;;;;;;;;;;5063356;28;20111;-60
2023/08/21 05:46:40;;;;;;;239.48;227.93;;;;;;;;;;5062204;28;20623;-60
2023/08/21 05:49:06;;;;;;;244.32;232.52;;;;;;;;;;5062297;28;20459;-60
2023/08/21 05:51:31;;;;;;;228.38;217.30;;;;;;;;;;5063223;28;20083;-60
2023/08/21 05:53:56;;;;;;;234.73;223.32;;;;;;;;;;5061257;28;20028;-61
2023/08/21 05:56:23;;;;;;;231.05;219.93;;;;;;;;;;5064323;28;20112;-61
2023/08/21 05:58:48;;;;;;;223.60;212.52;;;;;;;;;;5063442;28;20044;-59
2023/08/21 06:01:13;;;;;;;219.15;208.45;;;;;;;;;;5062862;28;20430;-62
2023/08/21 06:03:39;;;;;;;223.88;213.05;;;;;;;;;;5064689;28;20041;-61
2023/08/21 06:06:04;;;;;;;225.15;213.93;;;;;;;;;;5061658;28;20522;-61
2023/08/21 06:08:30;;;;;;;227.68;216.57;;;;;;;;;;5060681;28;20069;-60
2023/08/21 06:10:56;;;;;;;231.13;219.77;;;;;;;;;;5059603;28;20036;-62
2023/08/21 06:13:21;;;;;;;225.38;214.40;;;;;;;;;;5063886;28;20033;-61
2023/08/21 06:15:47;;;;;;;223.35;212.35;;;;;;;;;;5061812;28;20446;-61
2023/08/21 06:18:13;;;;;;;210.63;200.23;;;;;;;;;;5062110;28;21092;-61
2023/08/21 06:20:39;;;;;;;225.80;214.70;;;;;;;;;;5067588;28;20324;-61
2023/08/21 06:23:04;;;;;;;210.98;200.60;;;;;;;;;;5064444;28;20032;-61
2023/08/21 06:25:30;;;;;;;189.73;180.38;;;;;;;;;;5064380;28;20063;-61
2023/08/21 06:27:56;;;;;;;210.02;199.73;;;;;;;;;;5063817;28;20035;-60
2023/08/21 06:30:21;;;;;;;170.68;162.10;;;;;;;;;;5067583;28;20111;-60
2023/08/21 06:32:47;;;;;;;141.77;134.68;;;;;;;;;;5065214;28;20040;-60
2023/08/21 06:35:13;;;;;;;159.95;151.88;;;;;;;;;;5064416;28;20040;-60
2023/08/21 06:37:39;;;;;;;178.20;169.20;;;;;;;;;;5067365;28;20041;-61
2023/08/21 06:40:05;;;;;;;160.23;152.10;;;;;;;;;;5066301;28;20029;-62
2023/08/21 06:42:30;;;;;;;86.68;82.28;;;;;;;;;;5068375;28;20032;-61
2023/08/21 06:44:55;;;;;;;66.07;62.60;;;;;;;;;;5063226;28;20056;-62
2023/08/21 06:47:21;;;;;;;112.40;106.75;;;;;;;;;;5064043;28;20066;-62
2023/08/21 06:49:46;;;;;;;56.72;53.75;;;;;;;;;;5064900;28;20511;-62
2023/08/21 06:52:12;;;;;;;58.03;55.03;;;;;;;;;;5065682;28;20112;-61
2023/08/21 06:54:37;;;;;;;74.25;70.53;;;;;;;;;;5065913;28;20047;-62
2023/08/21 06:57:02;;;;;;;38.67;36.53;;;;;;;;;;5064238;28;20116;-62
2023/08/21 06:59:28;;;;;;;44.53;42.25;;;;;;;;;;5062385;28;20078;-62
2023/08/21 07:01:53;;;;;;;44.08;41.75;;;;;;;;;;5063687;28;20056;-62
2023/08/21 07:04:18;;;;;;;46.67;44.20;;;;;;;;;;5059446;28;20050;-62
2023/08/21 07:06:44;;;;;;;49.25;46.67;;;;;;;;;;5066798;28;20033;-62
2023/08/21 07:09:09;;;;;;;50.13;47.53;;;;;;;;;;5063133;28;20441;-62
2023/08/21 07:11:35;;;;;;;80.05;75.97;;;;;;;;;;5052571;28;20031;-62
2023/08/21 07:14:00;;;;;;;122.38;116.18;;;;;;;;;;5063824;28;20060;-62
2023/08/21 07:16:29;;;;;;;117.07;111.22;;;;;;;;;;5067902;28;20035;-63
2023/08/21 07:18:54;;;;;;;118.60;112.55;;;;;;;;;;5065584;28;20040;-63
2023/08/21 07:21:20;;;;;;;125.20;118.90;;;;;;;;;;5067714;28;20032;-62
2023/08/21 07:23:45;;;;;;;149.52;142.07;;;;;;;;;;5066042;28;20036;-62
2023/08/21 07:26:11;;;;;;;140.73;133.65;;;;;;;;;;5068608;28;20040;-63
2023/08/21 07:28:36;;;;;;;128.10;121.70;;;;;;;;;;5067372;28;20020;-63
2023/08/21 07:31:02;;;;;;;130.52;123.88;;;;;;;;;;5064526;28;20036;-62
2023/08/21 07:33:27;;;;;;;142.27;135.23;;;;;;;;;;5063203;28;20605;-63
2023/08/21 07:36:03;;;;;;;162.48;154.40;;;;;;;;;;5068334;28;21080;-62
2023/08/21 07:38:29;;;;;;;154.15;146.48;;;;;;;;;;5065023;28;20135;-63
2023/08/21 07:41:03;;;;;;;125.07;118.82;;;;;;;;;;5066033;28;20119;-63
2023/08/21 07:43:29;;;;;;;106.72;101.43;;;;;;;;;;5067281;28;20051;-64
2023/08/21 07:45:54;;;;;;;78.93;74.90;;;;;;;;;;5068159;28;20036;-68
2023/08/21 07:48:20;;;;;;;115.53;109.80;;;;;;;;;;5063314;28;20039;-67
2023/08/21 07:50:53;;;;;;;118.88;112.95;;;;;;;;;;5066036;28;20028;-67
2023/08/21 07:53:18;;;;;;;69.88;66.30;;;;;;;;;;5064402;28;20025;-67
2023/08/21 07:55:45;;;;;;;112.30;106.72;;;;;;;;;;5063347;28;20051;-67
2023/08/21 07:58:13;;;;;;;75.95;72.13;;;;;;;;;;5065143;28;20401;-67
2023/08/21 08:00:38;;;;;;;78.35;74.43;;;;;;;;;;5064777;28;20060;-68
2023/08/21 08:03:05;;;;;;;83.05;78.85;;;;;;;;;;5064185;28;20493;-67
2023/08/21 08:05:31;;;;;;;64.85;61.10;;;;;;;;;;5064412;28;20059;-67
2023/08/21 08:07:57;;;;;;;41.25;39.05;;;;;;;;;;5067874;28;20117;-62
2023/08/21 08:10:23;;;;;;;52.45;49.70;;;;;;;;;;5063562;28;20033;-62
2023/08/21 08:12:48;;;;;;;33.65;31.85;;;;;;;;;;5068568;28;20032;-65
2023/08/21 08:15:14;;;;;;;35.92;34.05;;;;;;;;;;5069155;28;20024;-62
2023/08/21 08:17:39;;;;;;;27.75;26.25;;;;;;;;;;5065473;28;20036;-62
2023/08/21 08:20:06;;;;;;;36.35;34.38;;;;;;;;;;5062008;28;20130;-62
2023/08/21 08:22:31;;;;;;;43.28;41.03;;;;;;;;;;5063430;28;20040;-61
2023/08/21 08:24:56;;;;;;;33.63;31.75;;;;;;;;;;5059327;28;20040;-63
2023/08/21 08:27:22;;;;;;;23.50;22.17;;;;;;;;;;5061898;28;20031;-64
2023/08/21 08:29:47;;;;;;;29.52;27.40;;;;;;;;;;5062545;28;20632;-64
2023/08/21 08:32:13;;;;;;;29.75;28.15;;;;;;;;;;5064865;28;20033;-64
2023/08/21 08:34:38;;;;;;;25.58;24.10;;;;;;;;;;5063446;28;20044;-64
2023/08/21 08:37:03;;;;;;;34.08;32.28;;;;;;;;;;5064764;28;20040;-64
2023/08/21 08:39:29;;;;;;;24.73;23.35;;;;;;;;;;5063957;28;20404;-64
2023/08/21 08:42:02;;;;;;;30.25;28.50;;;;;;;;;;5063849;28;20116;-63
2023/08/21 08:44:29;;;;;;;29.63;28.02;;;;;;;;;;5064782;28;20036;-63
2023/08/21 08:46:55;;;;;;;31.00;29.35;;;;;;;;;;5097424;27;20031;-63
2023/08/21 08:49:22;;;;;;;46.65;44.25;;;;;;;;;;5064491;28;20032;-63
2023/08/21 08:51:49;;;;;;;48.20;45.70;;;;;;;;;;5066191;28;20047;-63
2023/08/21 08:54:16;;;;;;;72.32;68.65;;;;;;;;;;5066374;28;20035;-63
2023/08/21 08:56:42;;;;;;;77.63;73.63;;;;;;;;;;5064621;28;20024;-63
2023/08/21 08:59:08;;;;;;;101.55;96.45;;;;;;;;;;5065851;28;20100;-63
2023/08/21 09:01:34;;;;;;;156.60;148.85;;;;;;;;;;5063669;28;20046;-63
2023/08/21 09:04:00;;;;;;;122.18;116.05;;;;;;;;;;5068421;28;20040;-63
2023/08/21 09:06:26;;;;;;;142.25;135.23;;;;;;;;;;5065099;28;20112;-63
2023/08/21 09:08:55;;;;;;;61.42;58.22;;;;;;;;;;5065912;28;20439;-63
2023/08/21 09:11:21;;;;;;;204.77;194.80;;;;;;;;;;5064352;28;20029;-63
2023/08/21 09:13:50;;;;;;;160.90;152.95;;;;;;;;;;5063905;28;20362;-63
2023/08/21 09:16:16;;;;;;;194.13;183.57;;;;;;;;;;5064265;28;20037;-63
2023/08/21 09:18:54;;;;;;;218.85;208.02;;;;;;;;;;5064188;28;20039;-68
2023/08/21 09:21:21;;;;;;;155.38;147.60;;;;;;;;;;5063334;28;20090;-69
2023/08/21 09:23:48;;;;;;;223.95;212.93;;;;;;;;;;5064188;28;20033;-69
2023/08/21 09:26:20;;;;;;;228.18;217.10;;;;;;;;;;5062499;28;20037;-66
2023/08/21 09:28:47;;;;;;;215.75;205.13;;;;;;;;;;5062289;28;20054;-68
2023/08/21 09:31:12;;;;;;;207.10;196.98;;;;;;;;;;5065646;28;20733;-69
2023/08/21 09:33:38;;;;;;;219.95;209.10;;;;;;;;;;5064891;28;20060;-63
2023/08/21 09:36:07;;;;;;;203.55;193.48;;;;;;;;;;5065194;28;20404;-63
2023/08/21 09:38:35;;;;;;;175.15;166.43;;;;;;;;;;5060559;28;20032;-63
2023/08/21 09:41:01;;;;;;;218.90;208.18;;;;;;;;;;5062646;28;20470;-63
2023/08/21 09:43:27;;;;;;;212.10;201.68;;;;;;;;;;5066393;28;20037;-63
2023/08/21 09:45:55;;;;;;;189.10;179.70;;;;;;;;;;5064272;28;20033;-67
2023/08/21 09:48:30;;;;;;;207.38;197.18;;;;;;;;;;5065491;28;20108;-69
2023/08/21 09:50:56;;;;;;;197.98;188.05;;;;;;;;;;5068894;28;20047;-63
2023/08/21 09:53:22;;;;;;;207.75;197.45;;;;;;;;;;5064422;28;20044;-64
2023/08/21 09:55:52;;;;;;;189.23;179.82;;;;;;;;;;5067400;28;20685;-64
2023/08/21 09:58:19;;;;;;;173.27;164.65;;;;;;;;;;5066650;28;20048;-63
2023/08/21 10:00:48;;;;;;;189.70;180.27;;;;;;;;;;5066279;28;20020;-63
2023/08/21 10:03:17;;;;;;;164.65;156.40;;;;;;;;;;5068497;28;20034;-63
2023/08/21 10:05:42;;;;;;;179.98;171.07;;;;;;;;;;5072344;28;20788;-61
2023/08/21 10:08:09;;;;;;;144.20;137.05;;;;;;;;;;5066925;28;20051;-63
2023/08/21 10:10:36;;;;;;;174.15;165.55;;;;;;;;;;5099162;27;20112;-63
2023/08/21 10:13:03;;;;;;;147.18;139.57;;;;;;;;;;5066101;28;20142;-63
2023/08/21 10:15:29;;;;;;;96.97;92.13;;;;;;;;;;5066302;28;20093;-63
2023/08/21 10:17:55;;;;;;;158.90;150.93;;;;;;;;;;5067987;28;20043;-63
2023/08/21 10:20:23;;;;;;;93.75;89.05;;;;;;;;;;5064721;28;20764;-63
2023/08/21 10:22:56;;;;;;;38.63;36.60;;;;;;;;;;5067395;28;20036;-63
2023/08/21 10:25:25;;;;;;;24.98;23.63;;;;;;;;;;5106120;27;20047;-65
2023/08/21 10:27:59;;;;;;;19.23;18.13;;;;;;;;;;5074661;28;20768;-62
2023/08/21 10:30:27;;;;;;;47.58;45.15;;;;;;;;;;5071334;28;20274;-63
2023/08/21 10:32:55;;;;;;;22.33;21.00;;;;;;;;;;5072601;28;20095;-66
2023/08/21 10:35:39;;;;;;;22.67;21.38;;;;;;;;;;5070626;28;20286;-64
2023/08/21 10:38:12;;;;;;;17.80;16.80;;;;;;;;;;5070109;28;20431;-68
2023/08/21 10:40:39;;;;;;;20.13;18.92;;;;;;;;;;5064722;28;20606;-71
2023/08/21 10:43:40;;;;;;;27.13;25.73;;;;;;;;;;5067268;28;20040;-62
2023/08/21 10:46:08;;;;;;;29.83;28.23;;;;;;;;;;5068750;28;20048;-69
2023/08/21 10:48:34;;;;;;;27.23;25.73;;;;;;;;;;5070166;28;20044;-62
2023/08/21 10:51:07;;;;;;;19.75;18.65;;;;;;;;;;5065318;28;20071;-61
2023/08/21 10:53:33;;;;;;;28.40;26.90;;;;;;;;;;5063385;28;20044;-62
2023/08/21 10:56:06;;;;;;;24.58;23.17;;;;;;;;;;5067096;28;20037;-63
2023/08/21 10:58:41;;;;;;;26.30;24.90;;;;;;;;;;5067802;28;20040;-62
2023/08/21 11:01:07;;;;;;;24.92;23.60;;;;;;;;;;5073982;28;20060;-68
2023/08/21 11:03:32;;;;;;;19.48;18.40;;;;;;;;;;5069819;28;20526;-66
2023/08/21 11:06:05;;;;;;;26.58;25.17;;;;;;;;;;5069391;28;20047;-70
2023/08/21 11:08:32;;;;;;;26.50;25.00;;;;;;;;;;5068164;28;20477;-68
2023/08/21 11:10:58;;;;;;;21.90;20.70;;;;;;;;;;5065328;28;20072;-69
2023/08/21 11:13:24;;;;;;;25.45;24.05;;;;;;;;;;5066479;28;20063;-68
2023/08/21 11:15:57;;;;;;;24.88;23.48;;;;;;;;;;5070149;28;20043;-68
2023/08/21 11:18:29;;;;;;;26.10;24.00;;;;;;;;;;5066292;28;20098;-70
2023/08/21 11:21:03;;;;;;;28.08;26.58;;;;;;;;;;5066884;28;20116;-69
2023/08/21 11:23:32;;;;;;;19.05;17.85;;;;;;;;;;5063756;28;20040;-69
2023/08/21 11:25:58;;;;;;;;;;;;;;;;;;5067315;28;20065;-68
2023/08/21 11:28:23;;;;;;;26.70;25.30;;;;;;;;;;5099563;27;20320;-68
2023/08/21 11:30:49;;;;;;;19.02;17.90;;;;;;;;;;5064181;28;20051;-68
2023/08/21 11:33:14;;;;;;;19.63;18.55;;;;;;;;;;5067778;28;20028;-69
2023/08/21 11:35:40;;;;;;;27.60;26.10;;;;;;;;;;5065586;28;20021;-70
2023/08/21 11:38:06;;;;;;;23.05;21.83;;;;;;;;;;5066725;28;20112;-70
2023/08/21 11:40:35;;;;;;;27.30;25.83;;;;;;;;;;5064673;28;20040;-70
2023/08/21 11:43:01;;;;;;;27.83;26.33;;;;;;;;;;5063760;28;20612;-70
2023/08/21 11:45:27;;;;;;;30.08;28.48;;;;;;;;;;5065064;28;20036;-70
2023/08/21 11:47:55;;;;;;;24.70;23.38;;;;;;;;;;5065231;28;20039;-70
2023/08/21 11:50:21;;;;;;;28.97;27.37;;;;;;;;;;5058782;28;20071;-69
2023/08/21 11:52:46;;;;;;;28.45;26.95;;;;;;;;;;5062718;28;20056;-70
2023/08/21 11:55:11;;;;;;;31.15;29.45;;;;;;;;;;5064706;28;20021;-68
2023/08/21 11:57:50;;;;;;;29.73;28.13;;;;;;;;;;5068085;28;20055;-70
2023/08/21 12:00:22;;;;;;;22.80;21.52;;;;;;;;;;5067627;28;20028;-69
2023/08/21 12:02:56;;;;;;;29.08;27.55;;;;;;;;;;5065744;28;20066;-70
2023/08/21 12:05:21;;;;;;;33.28;31.52;;;;;;;;;;5064877;28;20509;-71
2023/08/21 12:07:46;;;;;;;46.75;44.38;;;;;;;;;;5065471;28;20033;-71
2023/08/21 12:10:12;;;;;;;73.90;70.20;;;;;;;;;;5064535;28;20056;-71
2023/08/21 12:12:37;;;;;;;66.55;63.15;;;;;;;;;;5063685;28;20035;-73
2023/08/21 12:15:03;;;;;;;68.43;65.03;;;;;;;;;;5065217;28;20036;-72
2023/08/21 12:17:28;;;;;;;54.08;51.33;;;;;;;;;;5065474;28;20036;-71
2023/08/21 12:19:54;;;;;;;60.80;56.97;;;;;;;;;;5063794;28;20678;-70
2023/08/21 12:22:19;;;;;;;65.43;62.08;;;;;;;;;;5062800;28;20033;-70
2023/08/21 12:24:45;;;;;;;40.08;38.03;;;;;;;;;;5060110;28;20337;-70
2023/08/21 12:27:10;;;;;;;68.43;65.03;;;;;;;;;;5060050;28;20113;-70
2023/08/21 12:29:36;;;;;;;91.65;87.13;;;;;;;;;;5060821;28;20033;-68
2023/08/21 12:32:03;;;;;;;90.22;85.78;;;;;;;;;;5063708;28;20028;-68
2023/08/21 12:34:28;;;;;;;90.18;85.72;;;;;;;;;;5066169;28;20048;-69
2023/08/21 12:36:54;;;;;;;93.63;89.03;;;;;;;;;;5063234;28;20042;-70
2023/08/21 12:39:19;;;;;;;95.78;90.97;;;;;;;;;;5062852;28;20421;-70
2023/08/21 12:41:45;;;;;;;100.38;95.45;;;;;;;;;;5062463;28;20360;-68
2023/08/21 12:44:11;;;;;;;98.90;94.03;;;;;;;;;;5065936;28;20040;-68
2023/08/21 12:46:38;;;;;;;96.95;92.15;;;;;;;;;;5063741;28;20078;-68
2023/08/21 12:49:04;;;;;;;96.88;92.07;;;;;;;;;;5061166;28;20040;-69
2023/08/21 12:51:29;;;;;;;97.70;92.90;;;;;;;;;;5062511;28;20735;-69
2023/08/21 12:53:55;;;;;;;100.38;95.47;;;;;;;;;;5064314;28;20061;-69
2023/08/21 12:56:21;;;;;;;100.30;95.35;;;;;;;;;;5065979;28;20119;-69
2023/08/21 12:58:47;;;;;;;100.32;95.35;;;;;;;;;;5065216;28;20036;-68
2023/08/21 13:01:13;;;;;;;96.55;91.78;;;;;;;;;;5067831;28;20044;-69
2023/08/21 13:03:38;;;;;;;101.00;96.00;;;;;;;;;;5069140;28;20047;-68
2023/08/21 13:06:04;;;;;;;100.13;95.18;;;;;;;;;;5070176;28;20024;-70
2023/08/21 13:08:30;;;;;;;104.10;98.95;;;;;;;;;;5063699;28;20455;-64
2023/08/21 13:10:55;;;;;;;111.07;105.57;;;;;;;;;;5063803;28;20081;-64
2023/08/21 13:13:21;;;;;;;122.43;116.40;;;;;;;;;;5064522;28;20033;-64
2023/08/21 13:15:46;;;;;;;112.63;107.05;;;;;;;;;;5063625;28;20029;-64
2023/08/21 13:18:14;;;;;;;105.15;99.93;;;;;;;;;;5061623;28;20028;-64
2023/08/21 13:20:40;;;;;;;108.85;103.50;;;;;;;;;;5061702;28;20447;-64
2023/08/21 13:23:05;;;;;;;122.47;116.38;;;;;;;;;;5065639;28;20035;-63
2023/08/21 13:25:31;;;;;;;110.68;105.22;;;;;;;;;;5067377;28;20535;-64
2023/08/21 13:27:56;;;;;;;114.35;108.72;;;;;;;;;;5065980;28;20037;-65
2023/08/21 13:30:23;;;;;;;107.00;101.70;;;;;;;;;;5070819;28;20111;-64
2023/08/21 13:32:48;;;;;;;121.20;115.20;;;;;;;;;;5068275;28;21537;-64
2023/08/21 13:35:13;;;;;;;123.90;117.80;;;;;;;;;;5068223;28;20445;-64
2023/08/21 13:37:39;;;;;;;128.90;122.53;;;;;;;;;;5066288;28;20439;-64
2023/08/21 13:40:11;;;;;;;124.25;118.07;;;;;;;;;;5063735;28;20051;-64
2023/08/21 13:42:41;;;;;;;117.38;111.57;;;;;;;;;;5069384;28;20043;-69
2023/08/21 13:45:12;;;;;;;128.75;122.32;;;;;;;;;;5067692;28;20043;-63
2023/08/21 13:47:46;;;;;;;116.53;110.75;;;;;;;;;;5069684;28;20040;-64
2023/08/21 13:50:11;;;;;;;111.15;105.65;;;;;;;;;;5068079;28;20045;-64
2023/08/21 13:52:39;;;;;;;106.40;101.15;;;;;;;;;;5067706;28;20042;-64
2023/08/21 13:55:05;;;;;;;108.25;102.90;;;;;;;;;;5066360;28;20029;-64
2023/08/21 13:57:32;;;;;;;109.97;104.57;;;;;;;;;;5069602;28;20362;-64